createdAt,value
2019-02-06T00:01:14.486Z,94.02
2019-02-06T00:06:31.334Z,93.49
2019-02-06T00:09:00.114Z,93.30
2019-02-06T00:11:28.907Z,92.94
2019-02-06T00:13:57.981Z,93.63
2019-02-06T00:16:26.755Z,93.59
2019-02-06T00:18:55.467Z,93.23
2019-02-06T00:21:24.140Z,93.39
2019-02-06T00:23:53.280Z,93.23
2019-02-06T00:26:22.004Z,94.04
2019-02-06T00:28:50.631Z,94.41
2019-02-06T00:31:19.383Z,94.39
2019-02-06T00:33:47.995Z,94.39
2019-02-06T00:36:16.633Z,94.37
2019-02-06T00:38:45.329Z,94.57
2019-02-06T00:41:13.968Z,94.72
2019-02-06T00:43:42.581Z,94.65
2019-02-06T00:46:11.204Z,94.95
2019-02-06T00:48:39.907Z,95.15
2019-02-06T00:51:08.529Z,95.73
2019-02-06T00:53:37.247Z,96.11
2019-02-06T00:56:07.613Z,96.04
2019-02-06T00:58:36.239Z,95.66
2019-02-06T01:01:45.131Z,95.47
2019-02-06T01:07:01.560Z,97.40
2019-02-06T01:09:30.245Z,97.51
2019-02-06T01:11:58.935Z,97.44
2019-02-06T01:14:29.326Z,97.13
2019-02-06T01:16:58.006Z,96.73
2019-02-06T01:19:26.736Z,96.81
2019-02-06T01:21:55.354Z,96.14
2019-02-06T01:24:23.978Z,96.09
2019-02-06T01:26:52.584Z,96.12
2019-02-06T01:29:21.266Z,95.93
2019-02-06T01:34:27.324Z,96.15
2019-02-06T01:36:56.065Z,96.42
2019-02-06T01:39:24.756Z,96.80
2019-02-06T01:41:53.461Z,96.94
2019-02-06T01:44:22.208Z,96.55
2019-02-06T01:46:52.584Z,96.51
2019-02-06T01:49:21.341Z,96.58
2019-02-06T01:51:49.930Z,96.37
2019-02-06T01:54:18.575Z,96.21
2019-02-06T01:56:47.248Z,95.57
2019-02-06T01:59:15.882Z,95.67
2019-02-06T02:01:46.227Z,95.61
2019-02-06T02:04:14.886Z,96.04
2019-02-06T02:06:43.633Z,96.08
2019-02-06T02:09:31.379Z,95.99
2019-02-06T02:12:00.104Z,95.81
2019-02-06T02:14:30.515Z,95.65
2019-02-06T04:34:19.765Z,99.73
2019-02-06T04:36:48.492Z,99.43
2019-02-06T04:39:17.762Z,99.33
2019-02-06T04:41:46.438Z,99.43
2019-02-06T04:44:15.134Z,99.51
2019-02-06T04:46:43.940Z,99.78
2019-02-06T04:49:12.579Z,99.98
2019-02-06T04:51:41.259Z,100.00
2019-02-06T04:54:09.969Z,100.00
2019-02-06T04:56:40.306Z,100.00
2019-02-06T04:59:09.104Z,100.00
2019-02-06T05:01:37.832Z,100.00
2019-02-06T05:04:06.783Z,100.00
2019-02-06T05:06:35.364Z,100.00
2019-02-06T05:12:13.914Z,100.00
2019-02-06T05:14:42.540Z,100.00
2019-02-06T05:17:30.397Z,100.00
2019-02-06T05:19:59.096Z,100.00
2019-02-06T05:22:27.762Z,100.00
2019-02-06T05:24:56.472Z,100.00
2019-02-06T05:27:25.120Z,100.00
2019-02-06T05:29:53.937Z,100.00
2019-02-06T05:32:24.313Z,100.00
2019-02-06T05:34:52.933Z,100.00
2019-02-06T05:40:03.815Z,100.00
2019-02-06T05:42:32.475Z,100.00
2019-02-06T05:45:01.197Z,100.00
2019-02-06T05:47:29.825Z,100.00
2019-02-06T05:49:58.463Z,100.00
2019-02-06T05:52:27.156Z,100.00
2019-02-06T05:54:55.784Z,100.00
2019-02-06T05:57:24.451Z,100.00
2019-02-06T05:59:53.077Z,100.00
2019-02-06T06:02:23.503Z,100.00
2019-02-06T06:04:52.225Z,100.00
2019-02-06T06:07:20.855Z,100.00
2019-02-06T06:09:49.592Z,100.00
2019-02-06T06:12:18.324Z,100.00
2019-02-06T06:14:47.018Z,100.00
2019-02-06T06:17:15.651Z,100.00
2019-02-06T06:19:44.452Z,100.00
2019-02-06T06:22:13.164Z,100.00
2019-02-06T06:24:41.789Z,100.00
2019-02-06T06:27:10.548Z,100.00
2019-02-06T06:29:39.160Z,100.00
2019-02-06T06:32:07.995Z,100.00
2019-02-06T06:34:36.701Z,100.00
2019-02-06T06:37:05.485Z,100.00
2019-02-06T06:39:34.148Z,100.00
2019-02-06T06:42:42.593Z,100.00
2019-02-06T06:45:13.221Z,100.00
2019-02-06T06:47:42.058Z,100.00
2019-02-06T06:50:13.044Z,100.00
2019-02-06T06:52:41.766Z,100.00
2019-02-06T06:58:24.852Z,100.00
2019-02-06T07:00:53.580Z,100.00
2019-02-06T07:03:22.224Z,100.00
2019-02-06T07:05:50.857Z,100.00
2019-02-06T07:08:19.610Z,100.00
2019-02-06T07:10:48.396Z,100.00
2019-02-06T07:13:17.041Z,100.00
2019-02-06T07:15:45.747Z,100.00
2019-02-06T07:18:14.507Z,100.00
2019-02-06T07:20:44.851Z,100.00
2019-02-06T07:23:34.014Z,100.00
2019-02-06T07:28:56.899Z,100.00
2019-02-06T07:31:26.078Z,100.00
2019-02-06T07:33:55.250Z,100.00
2019-02-06T07:36:24.309Z,100.00
2019-02-06T07:38:53.242Z,100.00
2019-02-06T07:41:22.056Z,100.00
2019-02-06T07:43:53.698Z,100.00
2019-02-06T07:46:22.542Z,100.00
2019-02-06T07:48:51.649Z,100.00
2019-02-06T07:51:20.375Z,100.00
2019-02-06T07:53:49.704Z,100.00
2019-02-06T07:59:07.027Z,100.00
2019-02-06T08:01:35.790Z,100.00
2019-02-06T08:04:04.818Z,100.00
2019-02-06T08:06:35.810Z,100.00
2019-02-06T08:09:09.082Z,100.00
2019-02-06T08:11:38.503Z,100.00
2019-02-06T08:14:07.482Z,100.00
2019-02-06T08:16:57.472Z,100.00
2019-02-06T08:19:26.819Z,100.00
2019-02-06T08:21:55.795Z,100.00
2019-02-06T08:24:25.207Z,100.00
2019-02-06T08:26:53.939Z,100.00
2019-02-06T08:29:22.803Z,100.00
2019-02-06T08:31:51.478Z,100.00
2019-02-06T08:34:20.291Z,100.00
2019-02-06T08:36:48.997Z,100.00
2019-02-06T08:39:17.666Z,100.00
2019-02-06T08:41:46.291Z,100.00
2019-02-06T08:44:14.948Z,100.00
2019-02-06T08:46:43.567Z,100.00
2019-02-06T08:49:12.300Z,100.00
2019-02-06T08:51:42.840Z,100.00
2019-02-06T08:54:12.332Z,100.00
2019-02-06T08:56:41.062Z,100.00
2019-02-06T08:59:09.850Z,99.95
2019-02-06T09:01:38.538Z,99.99
2019-02-06T09:04:26.395Z,99.75
2019-02-06T09:06:55.145Z,99.01
2019-02-06T09:09:23.834Z,98.15
2019-02-06T09:11:52.496Z,97.81
2019-02-06T09:14:21.153Z,97.92
2019-02-06T09:16:49.793Z,97.88
2019-02-06T09:19:20.185Z,97.67
2019-02-06T09:21:48.834Z,98.16
2019-02-06T09:24:17.481Z,98.02
2019-02-06T09:26:46.179Z,98.26
2019-02-06T09:29:14.806Z,98.12
2019-02-06T09:31:43.487Z,97.86
2019-02-06T09:34:13.830Z,97.46
2019-02-06T09:36:42.548Z,97.08
2019-02-06T09:39:12.151Z,96.99
2019-02-06T09:41:41.788Z,96.87
2019-02-06T09:44:10.433Z,96.60
2019-02-06T09:46:39.126Z,96.63
2019-02-06T09:49:07.740Z,96.44
2019-02-06T09:51:36.374Z,96.31
2019-02-06T09:54:05.077Z,95.60
2019-02-06T09:56:33.711Z,94.70
2019-02-06T09:59:02.409Z,94.07
2019-02-06T10:01:31.086Z,93.62
2019-02-06T10:03:59.702Z,93.44
2019-02-06T10:06:30.252Z,93.43
2019-02-06T10:08:58.854Z,93.00
2019-02-06T10:11:27.475Z,92.81
2019-02-06T10:13:56.153Z,92.28
2019-02-06T10:16:24.802Z,92.31
2019-02-06T10:18:53.513Z,92.16
2019-02-06T10:21:31.292Z,91.75
2019-02-06T10:23:59.943Z,91.24
2019-02-06T10:26:28.671Z,90.75
2019-02-06T10:28:57.350Z,90.21
2019-02-06T10:31:26.032Z,89.66
2019-02-06T10:33:54.662Z,89.20
2019-02-06T10:36:25.031Z,89.03
2019-02-06T10:38:53.674Z,87.71
2019-02-06T10:41:22.397Z,87.50
2019-02-06T10:43:51.015Z,86.77
2019-02-06T10:46:19.740Z,86.54
2019-02-06T10:48:48.436Z,86.45
2019-02-06T10:51:17.155Z,85.84
2019-02-06T10:53:45.917Z,85.65
2019-02-06T10:56:14.609Z,85.34
2019-02-06T10:58:43.355Z,85.41
2019-02-06T11:01:12.081Z,84.73
2019-02-06T11:03:40.825Z,84.91
2019-02-06T11:06:09.552Z,83.92
2019-02-06T11:08:39.914Z,84.00
2019-02-06T11:11:08.594Z,83.74
2019-02-06T11:13:37.304Z,83.62
2019-02-06T11:16:05.995Z,83.11
2019-02-06T11:18:34.700Z,83.37
2019-02-06T11:21:03.398Z,83.88
2019-02-06T11:23:32.180Z,83.38
2019-02-06T11:26:00.819Z,83.07
2019-02-06T11:28:29.588Z,82.78
2019-02-06T11:30:58.269Z,82.39
2019-02-06T11:33:27.065Z,82.41
2019-02-06T11:35:55.689Z,82.22
2019-02-06T11:38:24.439Z,82.25
2019-02-06T11:40:54.842Z,81.98
2019-02-06T11:43:23.552Z,81.18
2019-02-06T11:45:52.244Z,81.11
2019-02-06T11:48:20.945Z,80.26
2019-02-06T11:50:49.587Z,81.18
2019-02-06T11:53:37.523Z,81.46
2019-02-06T11:56:06.224Z,81.55
2019-02-06T11:58:34.869Z,80.35
2019-02-06T12:04:00.072Z,80.80
2019-02-06T12:06:28.689Z,80.54
2019-02-06T12:08:57.329Z,79.57
2019-02-06T12:11:25.944Z,79.59
2019-02-06T12:13:54.625Z,79.25
2019-02-06T12:16:23.495Z,78.19
2019-02-06T12:18:53.687Z,77.65
2019-02-06T12:21:22.316Z,77.44
2019-02-06T12:23:50.984Z,77.10
2019-02-06T12:26:19.623Z,76.53
2019-02-06T12:28:48.241Z,76.86
2019-02-06T12:31:16.856Z,75.34
2019-02-06T12:33:45.539Z,75.93
2019-02-06T12:36:15.880Z,75.40
2019-02-06T12:38:53.165Z,75.48
2019-02-06T12:41:15.212Z,74.92
2019-02-06T12:43:43.836Z,74.48
2019-02-06T12:46:12.483Z,75.10
2019-02-06T12:48:41.200Z,75.06
2019-02-06T12:51:09.834Z,75.11
2019-02-06T12:53:40.346Z,74.59
2019-02-06T12:56:09.039Z,74.15
2019-02-06T12:58:37.752Z,73.67
2019-02-06T13:01:06.652Z,74.10
2019-02-06T13:03:35.427Z,73.13
2019-02-06T13:06:04.422Z,73.79
2019-02-06T13:08:33.068Z,74.26
2019-02-06T13:11:01.804Z,72.96
2019-02-06T13:13:30.468Z,73.19
2019-02-06T13:15:59.171Z,72.52
2019-02-06T13:18:27.818Z,72.50
2019-02-06T13:20:56.466Z,72.15
2019-02-06T13:23:25.094Z,72.79
2019-02-06T13:25:55.444Z,72.05
2019-02-06T13:28:24.073Z,71.55
2019-02-06T13:30:52.852Z,72.00
2019-02-06T13:33:21.516Z,72.26
2019-02-06T13:35:50.192Z,71.51
2019-02-06T13:38:18.827Z,71.39
2019-02-06T13:40:47.553Z,70.56
2019-02-06T13:43:16.300Z,70.83
2019-02-06T13:45:46.605Z,71.17
2019-02-06T13:48:15.276Z,71.07
2019-02-06T13:50:44.044Z,70.99
2019-02-06T13:53:12.799Z,70.47
2019-02-06T13:55:41.495Z,69.51
2019-02-06T13:58:19.816Z,69.90
2019-02-06T14:00:41.088Z,68.96
2019-02-06T14:03:09.897Z,69.83
2019-02-06T14:06:18.308Z,68.28
2019-02-06T14:08:46.985Z,68.42
2019-02-06T14:11:15.670Z,69.30
2019-02-06T14:13:44.411Z,69.83
2019-02-06T14:16:13.176Z,70.01
2019-02-06T14:18:41.928Z,69.65
2019-02-06T14:21:10.582Z,69.18
2019-02-06T14:24:04.584Z,68.33
2019-02-06T14:27:11.704Z,68.46
2019-02-06T14:30:18.802Z,68.08
2019-02-06T14:33:09.366Z,67.49
2019-02-06T14:36:16.466Z,68.22
2019-02-06T14:39:23.589Z,68.06
2019-02-06T14:42:30.730Z,68.27
2019-02-06T14:45:23.606Z,67.75
2019-02-06T14:48:30.732Z,67.31
2019-02-06T14:51:21.854Z,66.56
2019-02-06T14:54:28.992Z,67.02
2019-02-06T14:57:06.185Z,67.29
2019-02-06T15:00:13.286Z,66.15
2019-02-06T15:03:20.389Z,66.28
2019-02-06T15:06:16.205Z,66.97
2019-02-06T15:09:23.328Z,65.81
2019-02-06T15:12:30.531Z,66.11
2019-02-06T15:15:37.811Z,66.84
2019-02-06T15:18:28.412Z,66.91
2019-02-06T15:21:35.523Z,66.99
2019-02-06T15:24:42.931Z,67.03
2019-02-06T15:27:50.025Z,67.27
2019-02-06T15:30:42.090Z,67.75
2019-02-06T15:33:49.207Z,67.71
2019-02-06T15:36:43.475Z,68.02
2019-02-06T15:39:50.611Z,67.82
2019-02-06T15:42:43.491Z,68.13
2019-02-06T15:45:50.227Z,69.06
2019-02-06T15:48:57.324Z,70.01
2019-02-06T15:52:05.137Z,71.31
2019-02-06T15:55:12.256Z,71.97
2019-02-06T15:58:19.343Z,71.95
2019-02-06T16:01:14.065Z,72.49
2019-02-06T16:04:40.212Z,72.84
2019-02-06T16:07:47.318Z,72.49
2019-02-06T16:10:54.464Z,72.68
2019-02-06T16:14:01.861Z,72.71
2019-02-06T16:17:08.995Z,73.14
2019-02-06T16:20:16.128Z,73.35
2019-02-06T16:23:23.218Z,73.75
2019-02-06T16:26:30.350Z,74.15
2019-02-06T16:29:37.474Z,74.93
2019-02-06T16:32:44.589Z,75.58
2019-02-06T16:35:51.702Z,76.15
2019-02-06T16:38:58.926Z,76.50
2019-02-06T16:42:06.055Z,78.20
2019-02-06T16:45:13.163Z,78.24
2019-02-06T16:48:20.313Z,78.37
2019-02-06T16:51:10.862Z,78.31
2019-02-06T16:54:05.411Z,78.58
2019-02-06T16:57:12.545Z,79.02
2019-02-06T17:00:13.759Z,79.38
2019-02-06T17:03:10.208Z,79.64
2019-02-06T17:05:44.819Z,80.11
2019-02-06T17:08:51.934Z,80.58
2019-02-06T17:12:04.437Z,80.76
2019-02-06T17:15:07.889Z,81.10
2019-02-06T17:18:15.034Z,81.83
2019-02-06T17:20:53.703Z,82.10
2019-02-06T17:23:49.060Z,82.27
2019-02-06T17:26:40.964Z,82.75
2019-02-06T17:29:49.811Z,83.09
2019-02-06T17:32:56.924Z,83.15
2019-02-06T17:35:52.557Z,83.35
2019-02-06T17:38:44.200Z,83.33
2019-02-06T17:41:51.306Z,83.93
2019-02-06T17:44:58.447Z,84.16
2019-02-06T17:48:06.010Z,84.61
2019-02-06T17:51:13.140Z,85.39
2019-02-06T17:54:04.496Z,85.40
2019-02-06T17:56:34.925Z,85.67
2019-02-06T17:59:03.644Z,85.62
2019-02-06T18:01:59.910Z,86.06
2019-02-06T18:04:31.717Z,86.14
2019-02-06T18:07:00.427Z,86.41
2019-02-06T18:09:29.112Z,86.43
2019-02-06T18:11:57.742Z,86.29
2019-02-06T18:17:42.890Z,86.53
2019-02-06T18:20:32.437Z,86.85
2019-02-06T18:23:06.641Z,88.31
2019-02-06T18:25:56.310Z,88.67
2019-02-06T18:28:25.504Z,88.49
2019-02-06T18:30:54.167Z,88.56
2019-02-06T18:34:02.666Z,88.18
2019-02-06T18:36:31.851Z,89.23
2019-02-06T18:39:01.406Z,89.78
2019-02-06T18:41:30.464Z,89.60
2019-02-06T18:43:59.529Z,89.26
2019-02-06T18:46:28.446Z,88.83
2019-02-06T18:51:53.372Z,91.12
2019-02-06T18:54:22.507Z,90.99
2019-02-06T18:56:51.389Z,90.81
2019-02-06T18:59:20.298Z,90.22
2019-02-06T19:01:49.246Z,90.52
2019-02-06T19:04:19.790Z,90.40
2019-02-06T19:06:48.818Z,90.14
2019-02-06T19:09:20.493Z,90.60
2019-02-06T19:11:49.458Z,91.22
2019-02-06T19:14:18.603Z,91.20
2019-02-06T19:16:47.629Z,91.15
2019-02-06T19:19:36.774Z,90.96
2019-02-06T19:22:05.697Z,90.53
2019-02-06T19:24:34.499Z,90.78
2019-02-06T19:27:05.422Z,90.68
2019-02-06T19:32:08.812Z,91.33
2019-02-06T19:34:37.656Z,91.09
2019-02-06T19:40:15.125Z,91.58
2019-02-06T19:42:43.929Z,91.45
2019-02-06T19:45:12.886Z,91.66
2019-02-06T19:47:41.735Z,92.39
2019-02-06T19:50:15.233Z,93.12
2019-02-06T19:52:44.052Z,93.23
2019-02-06T19:55:13.579Z,93.83
2019-02-06T19:58:01.547Z,93.87
2019-02-06T20:03:44.950Z,94.29
2019-02-06T20:06:33.092Z,93.83
2019-02-06T20:09:14.788Z,93.28
2019-02-06T20:11:43.844Z,92.75
2019-02-06T20:14:12.723Z,93.37
2019-02-06T20:16:41.835Z,93.64
2019-02-06T20:19:10.845Z,93.34
2019-02-06T20:22:01.938Z,93.99
2019-02-06T20:24:30.934Z,93.77
2019-02-06T20:26:59.896Z,94.37
2019-02-06T20:29:28.627Z,94.50
2019-02-06T20:32:35.834Z,94.26
2019-02-06T20:38:14.277Z,94.34
2019-02-06T20:40:43.186Z,94.80
2019-02-06T20:43:21.710Z,94.83
2019-02-06T20:45:42.804Z,94.58
2019-02-06T20:48:11.602Z,94.44
2019-02-06T20:51:04.117Z,94.73
2019-02-06T20:53:33.037Z,94.75
2019-02-06T20:56:01.857Z,94.69
2019-02-06T20:58:30.701Z,94.22
2019-02-06T21:00:59.493Z,94.57
2019-02-06T21:03:30.163Z,94.76
2019-02-06T21:05:59.057Z,95.74
2019-02-06T21:08:28.045Z,96.56
2019-02-06T21:14:05.663Z,97.49
2019-02-06T21:16:34.450Z,97.66
2019-02-06T21:21:58.406Z,96.59
2019-02-06T21:24:27.344Z,95.70
2019-02-06T21:26:58.338Z,95.41
2019-02-06T21:29:27.326Z,95.47
2019-02-06T21:31:56.079Z,95.68
2019-02-06T21:34:24.961Z,95.19
2019-02-06T21:36:53.909Z,95.54
2019-02-06T21:39:22.792Z,96.02
2019-02-06T21:41:51.751Z,96.30
2019-02-06T21:44:20.541Z,96.07
2019-02-06T21:46:49.545Z,95.97
2019-02-06T21:49:18.546Z,95.84
2019-02-06T21:52:10.945Z,95.69
2019-02-06T21:54:39.738Z,95.58
2019-02-06T21:57:08.476Z,94.97
2019-02-06T21:59:37.415Z,95.25
2019-02-06T22:05:06.758Z,95.88
2019-02-06T22:07:35.564Z,96.37
2019-02-06T22:10:46.133Z,96.63
2019-02-06T22:13:15.025Z,96.94
2019-02-06T22:15:44.009Z,97.53
2019-02-06T22:18:12.919Z,97.24
2019-02-06T22:20:41.749Z,97.11
2019-02-06T22:23:10.572Z,96.43
2019-02-06T22:26:00.071Z,96.21
2019-02-06T22:28:30.703Z,96.22
2019-02-06T22:31:20.147Z,96.49
2019-02-06T22:33:49.044Z,96.89
2019-02-06T22:36:17.714Z,97.31
2019-02-06T22:38:46.345Z,97.42
2019-02-06T22:41:15.018Z,97.89
2019-02-06T22:43:43.716Z,98.49
2019-02-06T22:46:12.436Z,98.44
2019-02-06T22:48:41.096Z,98.34
2019-02-06T22:51:09.749Z,98.11
2019-02-06T22:53:38.561Z,98.08
2019-02-06T22:56:07.426Z,97.63
2019-02-06T22:58:36.233Z,97.63
2019-02-06T23:01:43.686Z,97.07
2019-02-06T23:04:33.456Z,97.03
2019-02-06T23:07:03.488Z,97.21
2019-02-06T23:09:32.820Z,97.25
2019-02-06T23:12:01.688Z,97.27
2019-02-06T23:14:30.613Z,97.18
2019-02-06T23:17:20.874Z,96.92
2019-02-06T23:20:09.487Z,97.46
2019-02-06T23:22:38.394Z,97.48
2019-02-06T23:25:46.908Z,97.18
2019-02-06T23:31:01.040Z,97.46
2019-02-06T23:33:29.909Z,97.82
2019-02-06T23:35:58.907Z,97.72
2019-02-06T23:41:22.710Z,97.94
2019-02-06T23:47:07.544Z,98.89
2019-02-06T23:49:36.232Z,98.89
2019-02-06T23:52:27.460Z,98.98
2019-02-06T23:58:15.328Z,99.03
